Time;durP1;ratioP1;P1;durP2;ratioP2;P2;SDS_P1;SDS_P2;PMS_P1;PMS_P2;Temp;Humidity;BMP_temperature;BMP_pressure;BME280_temperature;BME280_humidity;BME280_pressure;Samples;Min_cycle;Max_cycle;Signal;HPM_P1;HPM_P2
2023/01/10 00:01:30;;;;;;;;;3.00;3.00;;;;;7.48;100.00;101626.50;5084993;27;45294;-80
2023/01/10 00:03:55;;;;;;;;;2.33;2.00;;;;;7.49;100.00;101641.75;5104094;27;45286;-79
2023/01/10 00:06:21;;;;;;;;;5.67;3.67;;;;;7.49;100.00;101635.47;5105496;27;45353;-79
2023/01/10 00:08:46;;;;;;;;;3.67;3.67;;;;;7.55;100.00;101645.88;5085642;27;47494;-79
2023/01/10 00:13:55;;;;;;;;;5.00;2.00;;;;;7.49;100.00;101646.28;5103589;27;45327;-79
2023/01/10 00:16:22;;;;;;;;;5.00;2.67;;;;;7.43;100.00;101647.59;5105356;27;45416;-80
2023/01/10 00:18:48;;;;;;;;;2.33;1.00;;;;;7.29;100.00;101642.28;5086048;27;46194;-78
2023/01/10 00:21:13;;;;;;;;;9.33;6.00;;;;;7.43;100.00;101663.81;5105332;27;45306;-80
2023/01/10 00:23:39;;;;;;;;;2.33;2.00;;;;;7.41;100.00;101661.22;5085120;27;45456;-79
2023/01/10 00:26:05;;;;;;;;;6.67;3.00;;;;;7.47;100.00;101659.91;5086852;27;48227;-80
2023/01/10 00:28:33;;;;;;;;;3.67;1.33;;;;;7.45;100.00;101666.41;5104696;27;45391;-80
2023/01/10 00:31:05;;;;;;;;;2.00;2.00;;;;;7.50;100.00;101677.78;5105332;27;45456;-79
2023/01/10 00:33:37;;;;;;;;;2.00;2.00;;;;;7.54;100.00;101677.44;5074814;27;45329;-79
2023/01/10 00:36:06;;;;;;;;;2.67;2.33;;;;;7.48;100.00;101696.81;5084675;27;46048;-80
2023/01/10 00:38:32;;;;;;;;;1.00;1.00;;;;;7.15;100.00;101688.31;5096386;27;45364;-79
2023/01/10 00:40:58;;;;;;;;;9.33;3.00;;;;;7.32;100.00;101688.00;5083484;27;45451;-79
2023/01/10 00:46:08;;;;;;;;;3.67;3.67;;;;;7.27;100.00;101690.16;5105170;27;45779;-80
2023/01/10 00:48:34;;;;;;;;;6.33;5.00;;;;;7.24;100.00;101684.94;5105984;27;45356;-79
2023/01/10 00:51:00;;;;;;;;;9.33;7.00;;;;;7.15;100.00;101699.97;5086415;27;45552;-79
2023/01/10 00:53:26;;;;;;;;;7.67;3.67;;;;;7.29;100.00;101715.25;5105070;27;45491;-80
2023/01/10 00:55:52;;;;;;;;;5.33;4.33;;;;;7.20;100.00;101710.47;5101737;27;45627;-80
2023/01/10 00:58:17;;;;;;;;;6.33;2.67;;;;;7.33;100.00;101700.56;5086584;27;45400;-79
2023/01/10 01:00:48;;;;;;;;;3.00;3.00;;;;;7.36;100.00;101711.16;5104097;27;45787;-80
2023/01/10 01:03:15;;;;;;;;;8.67;2.67;;;;;7.20;100.00;101694.25;5098962;27;45428;-79
2023/01/10 01:05:42;;;;;;;;;8.33;5.00;;;;;7.26;100.00;101719.03;5083362;27;47321;-78
2023/01/10 01:08:07;;;;;;;;;6.33;3.67;;;;;7.26;100.00;101712.75;5087163;27;45275;-80
2023/01/10 01:10:33;;;;;;;;;5.00;2.00;;;;;7.26;100.00;101712.75;5083279;27;45227;-80
2023/01/10 01:13:06;;;;;;;;;4.33;3.00;;;;;7.25;100.00;101724.53;5105630;27;45627;-80
2023/01/10 01:15:33;;;;;;;;;4.33;1.67;;;;;7.30;100.00;101733.22;5085218;27;48051;-80
2023/01/10 01:17:58;;;;;;;;;1.33;1.33;;;;;7.23;100.00;101726.50;5106651;27;45463;-80
2023/01/10 01:20:24;;;;;;;;;2.00;2.00;;;;;7.14;100.00;101727.09;5085349;27;46330;-80
2023/01/10 01:22:49;;;;;;;;;2.33;2.33;;;;;7.11;100.00;101727.28;5081797;28;45721;-79
2023/01/10 01:25:14;;;;;;;;;5.00;4.33;;;;;7.06;100.00;101726.75;5075467;27;46952;-78
2023/01/10 01:27:40;;;;;;;;;3.00;3.00;;;;;7.18;100.00;101734.03;5080489;28;45373;-79
2023/01/10 01:30:07;;;;;;;;;6.00;2.33;;;;;7.21;100.00;101750.03;5082616;28;45383;-79
2023/01/10 01:32:33;;;;;;;;;3.67;1.67;;;;;7.30;100.00;101749.44;5083586;28;45620;-78
2023/01/10 01:34:58;;;;;;;;;6.00;2.00;;;;;7.23;100.00;101753.53;5078503;27;46350;-79
2023/01/10 01:37:24;;;;;;;;;3.67;2.33;;;;;7.30;100.00;101762.94;5083964;27;45152;-78
2023/01/10 01:39:49;;;;;;;;;5.00;2.00;;;;;7.37;100.00;101764.28;5076198;27;45328;-78
2023/01/10 01:42:25;;;;;;;;;8.67;3.00;;;;;7.32;100.00;101774.50;5081905;27;45613;-78
2023/01/10 01:45:08;;;;;;;;;1.33;1.00;;;;;7.31;100.00;101776.34;5083636;28;45515;-79
2023/01/10 01:47:42;;;;;;;;;3.67;2.33;;;;;7.26;100.00;101764.97;5081975;28;45601;-78
2023/01/10 01:50:34;;;;;;;;;7.00;3.00;;;;;7.18;100.00;101766.44;5076256;28;45340;-79
2023/01/10 01:53:05;;;;;;;;;7.00;6.00;;;;;7.21;100.00;101755.44;5075447;27;45389;-79
2023/01/10 01:55:33;;;;;;;;;6.00;2.00;;;;;7.24;100.00;101733.59;5069443;28;48620;-79
2023/01/10 01:58:02;;;;;;;;;7.00;6.00;;;;;7.24;100.00;101749.81;5076575;28;46330;-79
2023/01/10 02:00:27;;;;;;;;;9.33;6.00;;;;;7.26;100.00;101753.28;5081004;27;45345;-79
2023/01/10 02:02:57;;;;;;;;;5.00;2.33;;;;;7.31;100.00;101767.34;5077388;28;45405;-79
2023/01/10 02:05:24;;;;;;;;;3.00;1.67;;;;;7.32;100.00;101763.69;5074446;27;45360;-78
2023/01/10 02:07:55;;;;;;;;;5.00;1.33;;;;;7.28;100.00;101779.25;5072647;28;45428;-80
2023/01/10 02:10:31;;;;;;;;;3.00;2.00;;;;;7.13;100.00;101765.91;5076701;28;45341;-79
2023/01/10 02:13:01;;;;;;;;;6.67;1.00;;;;;7.21;100.00;101794.16;5082827;27;45275;-79
2023/01/10 02:15:27;;;;;;;;;2.00;2.00;;;;;7.20;100.00;101788.84;5078351;28;45859;-79
2023/01/10 02:17:52;;;;;;;;;5.00;3.00;;;;;7.18;100.00;101797.06;5073214;27;45425;-79
2023/01/10 02:20:21;;;;;;;;;7.00;2.33;;;;;7.17;100.00;101791.75;5078125;28;45345;-79
2023/01/10 02:23:05;;;;;;;;;4.33;3.00;;;;;7.26;100.00;101785.72;5098809;27;46000;-79
2023/01/10 02:26:07;;;;;;;;;6.00;3.00;;;;;7.26;100.00;101792.00;5095943;27;46771;-78
2023/01/10 02:28:51;;;;;;;;;1.00;1.00;;;;;7.19;100.00;101792.50;5069333;27;45369;-79
2023/01/10 02:31:54;;;;;;;;;10.00;3.00;;;;;7.19;100.00;101806.03;5087818;27;45491;-78
2023/01/10 02:34:33;;;;;;;;;6.67;2.33;;;;;7.18;100.00;101790.78;5099866;27;45323;-79
2023/01/10 02:37:18;;;;;;;;;2.00;2.00;;;;;7.24;100.00;101801.19;5084140;27;46724;-79
2023/01/10 02:39:47;;;;;;;;;5.00;2.00;;;;;7.29;100.00;101802.63;5084237;27;46324;-80
2023/01/10 02:42:37;;;;;;;;;3.00;2.33;;;;;7.18;100.00;101815.97;5082091;27;45377;-79
2023/01/10 02:45:07;;;;;;;;;1.33;1.00;;;;;7.11;100.00;101794.84;5069194;27;45867;-80
2023/01/10 02:47:37;;;;;;;;;1.67;1.67;;;;;7.25;100.00;101806.47;5099862;27;45385;-79
2023/01/10 02:50:21;;;;;;;;;4.33;2.33;;;;;7.27;100.00;101819.91;5083390;27;45421;-80
2023/01/10 02:52:46;;;;;;;;;7.33;3.00;;;;;7.21;100.00;101823.03;5073251;28;45392;-80
2023/01/10 02:55:12;;;;;;;;;2.00;2.00;;;;;7.26;100.00;101824.44;5095897;27;45486;-80
2023/01/10 02:57:54;;;;;;;;;5.00;2.00;;;;;7.22;100.00;101838.28;5083057;27;47226;-80
2023/01/10 03:00:25;;;;;;;;;5.67;2.00;;;;;7.24;100.00;101836.31;5081998;27;45528;-80
2023/01/10 03:03:17;;;;;;;;;8.67;3.67;;;;;7.21;100.00;101837.41;5083182;27;45420;-80
2023/01/10 03:05:54;;;;;;;;;3.33;2.33;;;;;7.28;100.00;101832.47;5101153;27;45301;-79
2023/01/10 03:08:29;;;;;;;;;6.00;1.00;;;;;7.27;100.00;101825.31;5091303;27;46905;-80
2023/01/10 03:11:01;;;;;;;;;6.33;1.67;;;;;7.31;100.00;101816.03;5083836;27;45305;-79
2023/01/10 03:13:30;;;;;;;;;6.33;4.33;;;;;7.30;100.00;101822.41;5099260;27;45630;-80
2023/01/10 03:15:57;;;;;;;;;3.67;3.00;;;;;7.34;100.00;101822.09;5102193;27;45321;-79
2023/01/10 03:18:30;;;;;;;;;2.33;2.33;;;;;7.37;100.00;101816.50;5099856;27;45482;-80
2023/01/10 03:20:58;;;;;;;;;2.00;0.67;;;;;7.40;100.00;101810.00;5101718;27;45309;-80
2023/01/10 03:23:25;;;;;;;;;5.33;1.00;;;;;7.41;100.00;101814.44;5102107;27;45474;-80
2023/01/10 03:25:54;;;;;;;;;6.33;1.67;;;;;7.34;100.00;101819.41;5083363;27;45654;-80
2023/01/10 03:28:31;;;;;;;;;2.33;2.33;;;;;7.41;100.00;101823.44;5099860;27;46379;-79
2023/01/10 03:31:03;;;;;;;;;2.33;1.67;;;;;7.53;100.00;101829.84;5083874;27;45472;-79
2023/01/10 03:33:31;;;;;;;;;2.33;2.00;;;;;7.56;100.00;101829.66;5102051;27;45223;-80
2023/01/10 03:36:26;;;;;;;;;11.00;1.00;;;;;7.60;100.00;101839.28;5084272;27;45550;-79
2023/01/10 03:38:55;;;;;;;;;6.67;1.00;;;;;7.54;100.00;101833.41;5089212;27;47020;-79
2023/01/10 03:41:37;;;;;;;;;6.00;2.00;;;;;7.51;100.00;101842.63;5108532;27;45357;-80
2023/01/10 03:47:08;;;;;;;;;5.00;3.00;;;;;7.57;100.00;101838.63;5108477;27;45297;-80
2023/01/10 03:49:37;;;;;;;;;7.33;3.00;;;;;7.60;100.00;101843.81;5108565;27;46668;-80
2023/01/10 03:52:04;;;;;;;;;9.00;5.00;;;;;7.59;100.00;101842.97;5085704;27;45396;-80
2023/01/10 03:54:30;;;;;;;;;2.00;2.00;;;;;7.62;100.00;101837.34;5090883;27;45444;-80
2023/01/10 03:56:55;;;;;;;;;4.33;2.00;;;;;7.58;100.00;101834.97;5106890;27;45237;-80
2023/01/10 03:59:25;;;;;;;;;4.33;1.00;;;;;7.61;100.00;101846.44;5106370;27;45330;-80
2023/01/10 04:01:51;;;;;;;;;2.33;2.00;;;;;7.62;100.00;101850.88;5087904;27;46342;-80
2023/01/10 04:04:17;;;;;;;;;2.00;2.00;;;;;7.66;100.00;101849.72;5106743;27;45534;-79
2023/01/10 04:06:43;;;;;;;;;8.00;5.33;;;;;7.72;100.00;101854.72;5108032;27;45372;-80
2023/01/10 04:09:08;;;;;;;;;2.00;2.00;;;;;7.78;100.00;101854.28;5095846;27;46267;-79
2023/01/10 04:11:34;;;;;;;;;2.00;2.00;;;;;7.79;100.00;101849.75;5107296;27;45475;-80
2023/01/10 04:13:59;;;;;;;;;11.00;3.00;;;;;7.86;100.00;101848.34;5090792;27;45283;-79
2023/01/10 04:16:24;;;;;;;;;3.33;2.33;;;;;7.88;100.00;101854.53;5089263;27;45550;-79
2023/01/10 04:18:50;;;;;;;;;2.67;2.67;;;;;7.89;100.00;101848.13;5089917;27;46808;-82
2023/01/10 04:21:15;;;;;;;;;3.00;1.67;;;;;7.90;100.00;101849.00;5109323;27;45325;-79
2023/01/10 04:23:41;;;;;;;;;6.00;1.67;;;;;7.97;100.00;101851.19;5088689;27;45234;-79
2023/01/10 04:26:06;;;;;;;;;2.33;1.00;;;;;7.95;100.00;101853.16;5109688;27;45269;-79
2023/01/10 04:28:32;;;;;;;;;11.00;7.00;;;;;7.87;100.00;101852.81;5107545;27;45297;-79
2023/01/10 04:30:57;;;;;;;;;4.33;2.33;;;;;7.80;100.00;101836.13;5087008;27;45338;-79
2023/01/10 04:33:22;;;;;;;;;3.00;2.00;;;;;7.92;100.00;101844.38;5088440;27;45293;-79
2023/01/10 04:35:49;;;;;;;;;1.67;1.67;;;;;8.01;100.00;101858.13;5107088;27;45314;-79
2023/01/10 04:38:15;;;;;;;;;2.33;2.33;;;;;8.02;100.00;101861.72;5105282;27;47191;-79
2023/01/10 04:40:41;;;;;;;;;5.00;3.00;;;;;8.10;100.00;101865.63;5087755;27;45519;-80
2023/01/10 04:43:07;;;;;;;;;3.00;2.00;;;;;8.08;100.00;101866.72;5105496;27;45340;-79
2023/01/10 04:45:32;;;;;;;;;6.67;2.67;;;;;8.10;100.00;101879.16;5108161;27;45463;-81
2023/01/10 04:47:59;;;;;;;;;4.67;2.33;;;;;8.15;100.00;101871.59;5086205;27;48280;-78
2023/01/10 04:50:25;;;;;;;;;8.33;3.00;;;;;8.25;100.00;101879.97;5103755;27;45434;-80
2023/01/10 04:52:50;;;;;;;;;4.33;1.67;;;;;8.25;100.00;101876.38;5098252;27;45447;-79
2023/01/10 04:55:15;;;;;;;;;1.33;1.33;;;;;8.30;100.00;101871.50;5103391;27;45293;-79
2023/01/10 04:57:41;;;;;;;;;5.33;3.00;;;;;8.29;100.00;101865.22;5083967;27;48299;-79
2023/01/10 05:00:08;;;;;;;;;7.67;2.67;;;;;8.18;100.00;101851.56;5083876;27;46171;-79
2023/01/10 05:02:33;;;;;;;;;4.33;1.00;;;;;8.30;100.00;101856.13;5093699;27;45347;-79
2023/01/10 05:04:59;;;;;;;;;2.67;2.33;;;;;8.29;100.00;101859.81;5098221;27;45522;-78
2023/01/10 05:07:24;;;;;;;;;2.00;2.00;;;;;8.31;100.00;101863.31;5091291;27;46455;-79
2023/01/10 05:09:49;;;;;;;;;3.33;2.00;;;;;8.34;100.00;101856.78;5096874;27;45497;-79
2023/01/10 05:12:15;;;;;;;;;2.67;2.67;;;;;8.25;100.00;101847.47;5079313;27;45533;-79
2023/01/10 05:14:40;;;;;;;;;3.00;2.00;;;;;8.29;100.00;101858.94;5099728;27;45322;-80
2023/01/10 05:17:05;;;;;;;;;4.67;2.00;;;;;8.33;100.00;101858.63;5100878;27;46242;-79
2023/01/10 05:19:31;;;;;;;;;6.67;4.33;;;;;8.31;100.00;101855.19;5101044;27;45404;-79
2023/01/10 05:21:56;;;;;;;;;7.33;2.67;;;;;8.33;100.00;101858.63;5100898;27;45291;-79
2023/01/10 05:24:21;;;;;;;;;4.67;3.00;;;;;8.29;100.00;101843.56;5101171;27;45378;-78
2023/01/10 05:26:47;;;;;;;;;5.00;3.00;;;;;8.29;100.00;101845.41;5100680;27;45412;-80
2023/01/10 05:29:13;;;;;;;;;4.00;2.00;;;;;8.35;100.00;101855.84;5100749;27;45390;-80
2023/01/10 05:31:39;;;;;;;;;6.00;3.33;;;;;8.33;100.00;101852.38;5078217;27;45425;-79
2023/01/10 05:34:04;;;;;;;;;2.33;2.33;;;;;8.36;100.00;101860.28;5082208;27;45327;-79
2023/01/10 05:36:30;;;;;;;;;4.67;2.33;;;;;8.34;100.00;101854.97;5103067;27;45397;-77
2023/01/10 05:38:55;;;;;;;;;6.33;2.33;;;;;8.36;100.00;101850.31;5100758;27;45713;-79
2023/01/10 05:41:22;;;;;;;;;4.33;2.33;;;;;8.40;100.00;101851.81;5101308;27;45321;-81
2023/01/10 05:43:47;;;;;;;;;2.00;2.00;;;;;8.38;100.00;101848.38;5086898;27;45586;-81
2023/01/10 05:46:13;;;;;;;;;2.00;2.00;;;;;8.42;100.00;101849.88;5101784;27;45491;-80
2023/01/10 05:48:38;;;;;;;;;4.00;2.00;;;;;8.47;100.00;101855.84;5100498;27;45255;-80
2023/01/10 05:51:04;;;;;;;;;6.33;2.33;;;;;8.41;100.00;101853.56;5106651;27;44723;-78
2023/01/10 05:53:29;;;;;;;;;3.67;2.00;;;;;8.46;100.00;101856.84;5081662;27;45369;-82
2023/01/10 05:56:00;;;;;;;;;7.33;2.67;;;;;8.48;100.00;101846.72;5074208;27;47598;-79
2023/01/10 05:58:26;;;;;;;;;2.00;2.00;;;;;8.43;100.00;101848.03;5098856;27;45272;-79
2023/01/10 06:00:54;;;;;;;;;10.00;7.00;;;;;8.38;100.00;101842.97;5092966;27;45358;-79
2023/01/10 06:03:20;;;;;;;;;4.67;2.00;;;;;8.44;100.00;101858.78;5080606;27;45584;-76
2023/01/10 06:05:46;;;;;;;;;3.00;1.00;;;;;8.47;100.00;101857.69;5095195;27;46494;-80
2023/01/10 06:08:11;;;;;;;;;3.67;3.67;;;;;8.41;100.00;101844.56;5097963;27;45330;-80
2023/01/10 06:10:36;;;;;;;;;6.33;3.00;;;;;8.45;100.00;101857.81;5102277;27;45498;-80
2023/01/10 06:13:04;;;;;;;;;6.00;3.33;;;;;8.45;100.00;101860.50;5086113;27;45479;-80
2023/01/10 06:15:29;;;;;;;;;3.33;3.33;;;;;8.41;100.00;101853.56;5094827;27;47258;-79
2023/01/10 06:17:55;;;;;;;;;8.00;4.33;;;;;8.44;100.00;101852.47;5080294;27;45272;-80
2023/01/10 06:20:20;;;;;;;;;4.00;4.00;;;;;8.39;100.00;101855.53;5080665;27;45545;-79
2023/01/10 06:22:45;;;;;;;;;7.00;4.33;;;;;8.41;100.00;101853.56;5080527;27;45530;-80
2023/01/10 06:25:13;;;;;;;;;7.00;3.00;;;;;8.41;100.00;101847.28;5079780;27;47076;-78
2023/01/10 06:27:42;;;;;;;;;3.67;3.67;;;;;8.38;100.00;101844.78;5103805;27;45256;-79
2023/01/10 06:30:10;;;;;;;;;2.33;2.00;;;;;8.38;100.00;101840.25;5098415;27;45325;-80
2023/01/10 06:32:36;;;;;;;;;4.00;4.00;;;;;8.38;100.00;101848.38;5102541;27;45572;-79
2023/01/10 06:35:01;;;;;;;;;7.00;3.00;;;;;8.34;100.00;101841.41;5096883;27;46338;-80
2023/01/10 06:37:27;;;;;;;;;4.67;4.67;;;;;8.34;100.00;101844.13;5083461;27;45453;-81
2023/01/10 06:39:52;;;;;;;;;2.67;2.00;;;;;8.30;100.00;101836.31;5072110;27;45393;-79
2023/01/10 06:42:17;;;;;;;;;6.00;4.00;;;;;8.32;100.00;101837.97;5102388;27;45678;-79
2023/01/10 06:44:43;;;;;;;;;7.67;3.33;;;;;8.32;100.00;101843.41;5087045;27;46625;-80
2023/01/10 06:47:08;;;;;;;;;6.33;3.00;;;;;8.28;100.00;101843.66;5098579;27;45302;-77
2023/01/10 06:49:34;;;;;;;;;6.33;5.33;;;;;8.34;100.00;101852.25;5092960;27;45505;-79
2023/01/10 06:51:59;;;;;;;;;11.00;6.00;;;;;8.29;100.00;101853.53;5083504;27;45496;-79
2023/01/10 06:54:24;;;;;;;;;6.00;3.00;;;;;8.29;100.00;101862.50;5096765;27;45607;-79
2023/01/10 06:56:50;;;;;;;;;3.00;3.00;;;;;8.32;100.00;101869.59;5079765;27;45329;-81
2023/01/10 06:59:15;;;;;;;;;6.00;4.00;;;;;8.34;100.00;101860.38;5089443;27;45349;-82
2023/01/10 07:01:41;;;;;;;;;7.33;7.00;;;;;8.36;100.00;101852.16;5078342;27;45422;-80
2023/01/10 07:04:06;;;;;;;;;6.00;6.00;;;;;8.39;100.00;101854.66;5086895;27;45420;-80
2023/01/10 07:06:36;;;;;;;;;5.67;5.67;;;;;8.37;100.00;101860.19;5072911;27;45379;-80
2023/01/10 07:09:01;;;;;;;;;9.00;4.33;;;;;8.19;100.00;101864.97;5086603;27;45474;-84
2023/01/10 07:11:27;;;;;;;;;4.67;4.33;;;;;8.30;100.00;101860.69;5083491;27;45582;-79
2023/01/10 07:13:52;;;;;;;;;5.67;5.33;;;;;8.38;100.00;101866.47;5085449;27;45690;-79
2023/01/10 07:16:18;;;;;;;;;7.00;7.00;;;;;8.34;100.00;101845.97;5085787;27;45385;-80
2023/01/10 07:18:43;;;;;;;;;10.00;6.33;;;;;8.37;100.00;101845.78;5086738;27;45192;-79
2023/01/10 07:21:09;;;;;;;;;9.00;7.67;;;;;8.38;100.00;101842.97;5100986;27;45627;-79
2023/01/10 07:23:35;;;;;;;;;7.00;4.33;;;;;8.29;100.00;101831.88;5085000;27;46371;-79
2023/01/10 07:26:07;;;;;;;;;5.67;5.33;;;;;8.23;100.00;101844.00;5098086;27;45440;-79
2023/01/10 07:28:35;;;;;;;;;4.33;4.00;;;;;8.31;100.00;101846.19;5085390;27;45218;-81
2023/01/10 07:31:03;;;;;;;;;6.33;3.67;;;;;8.34;100.00;101845.97;5077510;27;45488;-79
2023/01/10 07:33:29;;;;;;;;;6.33;4.33;;;;;8.32;100.00;101837.97;5083109;27;46669;-79
2023/01/10 07:35:54;;;;;;;;;6.00;6.00;;;;;8.37;100.00;101840.34;5098821;27;46246;-80
2023/01/10 07:38:20;;;;;;;;;7.33;5.67;;;;;8.14;100.00;101839.22;5065784;28;45432;-78
2023/01/10 07:40:45;;;;;;;;;7.67;6.67;;;;;8.14;100.00;101834.66;5099041;27;45455;-81
2023/01/10 07:43:10;;;;;;;;;8.67;6.67;;;;;8.25;100.00;101835.78;5094927;27;45263;-80
2023/01/10 07:45:36;;;;;;;;;7.00;4.00;;;;;8.32;100.00;101846.09;5087576;27;45287;-81
2023/01/10 07:48:03;;;;;;;;;7.00;5.00;;;;;8.27;100.00;101840.09;5093762;27;45238;-80
2023/01/10 07:50:32;;;;;;;;;3.00;3.00;;;;;8.31;100.00;101851.63;5097826;27;45429;-79
2023/01/10 07:52:59;;;;;;;;;11.00;7.00;;;;;8.40;100.00;101845.56;5093806;27;45491;-79
2023/01/10 07:55:25;;;;;;;;;9.00;6.00;;;;;8.29;100.00;101838.16;5095491;27;45397;-79
2023/01/10 07:57:51;;;;;;;;;4.33;4.33;;;;;8.36;100.00;101850.31;5082173;27;45351;-79
2023/01/10 08:00:17;;;;;;;;;4.33;3.00;;;;;8.36;100.00;101834.06;5079994;27;45397;-77
2023/01/10 08:02:43;;;;;;;;;8.33;5.33;;;;;8.36;100.00;101839.47;5093386;27;45394;-81
2023/01/10 08:05:09;;;;;;;;;6.00;4.33;;;;;8.34;100.00;101822.47;5094338;27;45906;-80
2023/01/10 08:07:35;;;;;;;;;14.67;7.33;;;;;8.48;100.00;101844.03;5087031;27;45367;-78
2023/01/10 08:10:00;;;;;;;;;3.33;2.33;;;;;8.34;100.00;101830.59;5094921;27;45472;-78
2023/01/10 08:12:26;;;;;;;;;8.00;6.67;;;;;8.49;100.00;101840.34;5072358;28;46782;-77
2023/01/10 08:14:51;;;;;;;;;9.33;4.33;;;;;8.48;100.00;101838.59;5091545;27;45354;-77
2023/01/10 08:17:17;;;;;;;;;5.33;5.33;;;;;8.52;100.00;101839.28;5100811;27;45392;-77
2023/01/10 08:19:43;;;;;;;;;8.33;4.33;;;;;8.63;100.00;101841.19;5098371;27;45325;-77
2023/01/10 08:22:08;;;;;;;;;6.67;4.67;;;;;8.70;100.00;101846.06;5077582;27;46967;-77
2023/01/10 08:24:34;;;;;;;;;6.33;4.67;;;;;8.69;100.00;101841.66;5099961;27;45436;-76
2023/01/10 08:27:00;;;;;;;;;5.67;3.67;;;;;8.72;100.00;101841.41;5088864;27;45353;-76
2023/01/10 08:29:26;;;;;;;;;6.00;4.00;;;;;8.80;100.00;101847.16;5099944;27;45382;-78
2023/01/10 08:31:52;;;;;;;;;9.67;7.67;;;;;8.83;100.00;101838.81;5103564;27;46966;-76
2023/01/10 08:34:17;;;;;;;;;10.00;3.67;;;;;8.83;100.00;101827.13;5085379;27;45186;-76
2023/01/10 08:36:43;;;;;;;;;6.00;6.00;;;;;8.90;100.00;101828.41;5105944;27;45172;-79
2023/01/10 08:39:08;;;;;;;;;6.00;6.00;;;;;8.87;100.00;101831.31;5103518;27;46208;-79
2023/01/10 08:41:33;;;;;;;;;4.00;4.00;;;;;8.86;100.00;101825.03;5098892;27;47374;-78
2023/01/10 08:43:59;;;;;;;;;7.33;6.00;;;;;8.99;100.00;101835.84;5103462;27;45931;-76
2023/01/10 08:46:25;;;;;;;;;7.67;6.00;;;;;8.99;100.00;101838.53;5101677;27;45352;-79
2023/01/10 08:48:51;;;;;;;;;8.00;7.67;;;;;8.99;100.00;101834.00;5084885;27;45532;-77
2023/01/10 08:51:17;;;;;;;;;13.33;9.67;;;;;9.08;100.00;101846.03;5080863;27;47263;-78
2023/01/10 08:53:43;;;;;;;;;7.33;4.00;;;;;9.03;100.00;101850.91;5101410;27;45762;-77
2023/01/10 08:56:08;;;;;;;;;7.33;4.00;;;;;8.99;100.00;101849.38;5105343;27;45345;-76
2023/01/10 08:58:34;;;;;;;;;7.00;6.00;;;;;9.01;100.00;101857.41;5099735;27;45322;-76
2023/01/10 09:01:04;;;;;;;;;7.00;4.67;;;;;8.90;100.00;101858.22;5098650;27;46436;-76
2023/01/10 09:03:29;;;;;;;;;10.67;7.67;;;;;8.99;100.00;101860.22;5098440;27;44875;-77
2023/01/10 09:05:54;;;;;;;;;13.00;7.00;;;;;8.90;100.00;101856.38;5083538;27;45348;-78
2023/01/10 09:08:20;;;;;;;;;7.00;4.67;;;;;8.90;100.00;101855.50;5081251;27;45286;-79
2023/01/10 09:10:47;;;;;;;;;6.67;5.67;;;;;8.93;100.00;101837.16;5085595;27;47161;-79
2023/01/10 09:13:12;;;;;;;;;7.33;7.33;;;;;8.98;100.00;101844.97;5099034;27;44861;-77
2023/01/10 09:15:38;;;;;;;;;7.33;6.67;;;;;8.75;100.00;101840.34;5098158;27;45368;-77
2023/01/10 09:18:06;;;;;;;;;9.67;7.67;;;;;8.84;100.00;101834.28;5084111;27;45486;-77
2023/01/10 09:20:36;;;;;;;;;11.00;6.33;;;;;8.95;100.00;101843.34;5080589;27;47185;-77
2023/01/10 09:23:11;;;;;;;;;8.00;6.33;;;;;8.92;100.00;101837.25;5070678;27;46490;-77
2023/01/10 09:25:37;;;;;;;;;8.00;6.67;;;;;8.83;100.00;101829.81;5078719;28;45358;-76
2023/01/10 09:28:04;;;;;;;;;10.00;8.33;;;;;8.96;100.00;101844.22;5069852;27;45512;-77
2023/01/10 09:30:30;;;;;;;;;11.00;7.67;;;;;8.94;100.00;101830.75;5077829;28;45433;-76
2023/01/10 09:32:57;;;;;;;;;14.00;10.00;;;;;9.07;100.00;101833.44;5080685;27;45255;-76
2023/01/10 09:35:25;;;;;;;;;8.67;8.67;;;;;9.05;100.00;101824.56;5069986;28;45635;-75
2023/01/10 09:37:55;;;;;;;;;11.00;9.00;;;;;9.06;100.00;101826.28;5079696;28;45607;-78
2023/01/10 09:40:54;;;;;;;;;10.00;6.67;;;;;9.07;100.00;101835.28;5076046;28;46991;-76
2023/01/10 09:43:41;;;;;;;;;10.33;8.33;;;;;9.05;100.00;101821.00;5071049;28;46245;-75
2023/01/10 09:46:30;;;;;;;;;17.00;9.00;;;;;9.10;100.00;101816.97;5079365;27;45633;-76
2023/01/10 09:49:25;;;;;;;;;10.33;9.00;;;;;9.09;100.00;101817.94;5080178;27;45175;-76
2023/01/10 09:51:53;;;;;;;;;17.67;9.67;;;;;9.06;100.00;101822.72;5081323;28;46726;-75
2023/01/10 09:54:28;;;;;;;;;17.00;11.00;;;;;9.08;100.00;101821.63;5082576;28;45500;-78
2023/01/10 09:56:55;;;;;;;;;11.33;7.00;;;;;9.12;100.00;101816.84;5074655;28;45247;-77
2023/01/10 09:59:24;;;;;;;;;11.33;8.33;;;;;9.09;100.00;101815.22;5077777;28;45507;-76
2023/01/10 10:01:56;;;;;;;;;17.00;12.00;;;;;9.11;100.00;101816.00;5075010;28;47628;-77
2023/01/10 10:04:22;;;;;;;;;9.33;9.33;;;;;9.09;100.00;101817.06;5073627;27;45472;-76
2023/01/10 10:06:49;;;;;;;;;11.00;11.00;;;;;9.11;100.00;101821.41;5082249;27;45365;-76
2023/01/10 10:09:20;;;;;;;;;11.00;7.67;;;;;9.12;100.00;101836.69;5082050;28;45428;-77
2023/01/10 10:12:16;;;;;;;;;12.33;11.33;;;;;8.99;100.00;101828.56;5091274;27;46552;-76
2023/01/10 10:15:03;;;;;;;;;12.33;6.00;;;;;8.98;100.00;101828.72;5071447;28;45263;-78
2023/01/10 10:17:59;;;;;;;;;15.67;11.00;;;;;9.00;100.00;101829.44;5068713;28;45361;-77
2023/01/10 10:20:46;;;;;;;;;14.00;12.33;;;;;9.10;100.00;101819.66;5079577;28;45424;-77
2023/01/10 10:23:41;;;;;;;;;11.67;7.33;;;;;9.05;100.00;101821.88;5096744;27;45592;-77
2023/01/10 10:26:15;;;;;;;;;13.67;13.00;;;;;9.07;100.00;101813.59;5099415;27;45247;-78
2023/01/10 10:29:01;;;;;;;;;16.67;12.33;;;;;9.10;100.00;101805.25;5094395;27;45313;-78
2023/01/10 10:32:05;;;;;;;;;17.00;13.00;;;;;9.16;100.00;101796.66;5077464;27;45460;-76
2023/01/10 10:34:38;;;;;;;;;12.00;9.33;;;;;9.16;100.00;101781.25;5100329;27;45295;-77
2023/01/10 10:37:19;;;;;;;;;13.00;11.33;;;;;9.17;100.00;101782.13;5101089;27;45348;-76
2023/01/10 10:39:56;;;;;;;;;16.67;12.00;;;;;9.17;100.00;101774.84;5084653;27;45489;-77
2023/01/10 10:42:28;;;;;;;;;14.67;8.33;;;;;9.21;100.00;101768.22;5092732;27;45327;-76
2023/01/10 10:45:14;;;;;;;;;14.00;8.67;;;;;9.26;100.00;101759.75;5092271;27;45496;-76
2023/01/10 10:47:48;;;;;;;;;13.33;11.33;;;;;9.19;100.00;101742.22;5100172;27;45394;-75
2023/01/10 10:50:14;;;;;;;;;12.33;8.00;;;;;9.13;100.00;101751.66;5101393;27;45824;-76
2023/01/10 10:52:41;;;;;;;;;11.00;7.33;;;;;9.22;100.00;101736.53;5101035;27;45543;-77
2023/01/10 10:55:13;;;;;;;;;16.00;11.00;;;;;9.26;100.00;101730.78;5100570;27;46621;-77
2023/01/10 10:57:40;;;;;;;;;2.33;2.33;;;;;9.21;100.00;101730.25;5101068;27;45223;-78
2023/01/10 11:00:07;;;;;;;;;10.33;8.00;;;;;9.22;100.00;101718.44;5100561;27;45571;-77
2023/01/10 11:03:02;;;;;;;;;8.67;8.67;;;;;9.21;100.00;101718.53;5099699;27;45294;-78
2023/01/10 11:05:39;;;;;;;;;12.67;8.00;;;;;9.33;100.00;101728.47;5052507;27;46140;-76
2023/01/10 11:08:09;;;;;;;;;9.00;7.33;;;;;9.23;100.00;101712.03;5082547;27;45250;-79
2023/01/10 11:10:37;;;;;;;;;13.33;12.00;;;;;9.31;100.00;101709.59;5101230;27;45676;-78
2023/01/10 11:13:13;;;;;;;;;19.67;11.33;;;;;9.33;100.00;101717.63;5082053;27;45411;-77
2023/01/10 11:15:44;;;;;;;;;8.33;7.67;;;;;9.37;100.00;101697.41;5097920;27;45421;-77
2023/01/10 11:18:19;;;;;;;;;9.67;9.67;;;;;9.37;100.00;101687.44;5073405;27;45281;-76
2023/01/10 11:20:57;;;;;;;;;9.00;8.00;;;;;9.25;100.00;101672.13;5081137;27;45395;-78
2023/01/10 11:23:31;;;;;;;;;15.33;12.67;;;;;9.37;100.00;101682.00;5072885;27;45426;-77
2023/01/10 11:25:57;;;;;;;;;14.67;9.33;;;;;9.15;100.00;101665.66;5076588;27;47175;-78
2023/01/10 11:28:30;;;;;;;;;13.00;11.67;;;;;9.31;100.00;101666.22;5082079;27;45429;-78
2023/01/10 11:30:56;;;;;;;;;14.33;10.00;;;;;9.42;100.00;101664.53;5088135;27;45439;-78
2023/01/10 11:33:27;;;;;;;;;12.00;8.67;;;;;9.10;100.00;101656.16;5095921;27;45410;-78
2023/01/10 11:35:59;;;;;;;;;10.00;2.33;;;;;9.24;100.00;101662.25;5081400;27;45748;-78
2023/01/10 11:38:28;;;;;;;;;9.00;7.67;;;;;9.20;100.00;101646.34;5075643;27;45284;-78
2023/01/10 11:40:54;;;;;;;;;16.00;12.00;;;;;9.30;100.00;101648.22;5096310;27;45335;-77